Tamarac, Florida
Current Conditions -  °F | °C
As of 7:53 AM on Thursday 30 Oct 2014 (Local Time) from KPMP Reporting Station
Few Clouds Few Clouds  
Wind Chill: 71°   Ceiling: Unl
Heat Index: 71°   Visibility: 8mi
Dew Point: 66°   Wind: 3mph
Humidity: 84%   Direction: 310°NW
Pressure: 29.96"   Gusts: NA
Location:  26.21°N, 80.27°W
Report Text: KPMP 301153Z 31003KT 8SM FEW030 22/19 A2996 RMK AO2 SLP147 T02170189 10256 20211 53006
Loading
Personal Weather Stations






























Interactive Weather Map
Tropical Storm Tracking
New forecast layout! Learn more

10-Day Weather Forecast

Advertisements
Track Severe Weather on mobile